sensor_id;sensor_type;location;lat;lon;timestamp;temperature;humidity
3466;DHT22;1747;48.884;9.160;2022-07-11T00:01:10;19.20;89.40
3466;DHT22;1747;48.884;9.160;2022-07-11T00:03:37;19.30;89.20
3466;DHT22;1747;48.884;9.160;2022-07-11T00:06:04;19.30;89.10
3466;DHT22;1747;48.884;9.160;2022-07-11T00:08:31;19.30;89.40
3466;DHT22;1747;48.884;9.160;2022-07-11T00:10:59;19.30;89.60
3466;DHT22;1747;48.884;9.160;2022-07-11T00:13:26;19.30;89.70
3466;DHT22;1747;48.884;9.160;2022-07-11T00:15:52;19.30;90.40
3466;DHT22;1747;48.884;9.160;2022-07-11T00:18:19;19.30;90.50
3466;DHT22;1747;48.884;9.160;2022-07-11T00:20:46;19.20;91.00
3466;DHT22;1747;48.884;9.160;2022-07-11T00:23:13;19.20;91.30
3466;DHT22;1747;48.884;9.160;2022-07-11T00:25:40;19.10;92.00
3466;DHT22;1747;48.884;9.160;2022-07-11T00:28:08;19.00;92.00
3466;DHT22;1747;48.884;9.160;2022-07-11T00:30:35;19.00;91.70
3466;DHT22;1747;48.884;9.160;2022-07-11T00:33:01;18.90;92.00
3466;DHT22;1747;48.884;9.160;2022-07-11T00:35:28;18.80;93.10
3466;DHT22;1747;48.884;9.160;2022-07-11T00:37:55;18.60;94.20
3466;DHT22;1747;48.884;9.160;2022-07-11T00:40:22;18.60;93.50
3466;DHT22;1747;48.884;9.160;2022-07-11T00:42:49;18.60;93.70
3466;DHT22;1747;48.884;9.160;2022-07-11T00:45:17;18.50;94.90
3466;DHT22;1747;48.884;9.160;2022-07-11T00:47:44;18.50;94.20
3466;DHT22;1747;48.884;9.160;2022-07-11T00:50:11;18.50;94.10
3466;DHT22;1747;48.884;9.160;2022-07-11T00:52:38;18.50;95.10
3466;DHT22;1747;48.884;9.160;2022-07-11T00:55:06;18.50;95.20
3466;DHT22;1747;48.884;9.160;2022-07-11T00:57:34;18.50;94.70
3466;DHT22;1747;48.884;9.160;2022-07-11T01:00:03;18.50;94.80
3466;DHT22;1747;48.884;9.160;2022-07-11T01:02:31;18.50;94.90
3466;DHT22;1747;48.884;9.160;2022-07-11T01:04:58;18.50;95.30
3466;DHT22;1747;48.884;9.160;2022-07-11T01:07:25;18.40;95.80
3466;DHT22;1747;48.884;9.160;2022-07-11T01:09:52;18.40;95.90
3466;DHT22;1747;48.884;9.160;2022-07-11T01:12:19;18.40;95.30
3466;DHT22;1747;48.884;9.160;2022-07-11T01:14:52;18.40;95.30
3466;DHT22;1747;48.884;9.160;2022-07-11T01:17:19;18.40;95.60
3466;DHT22;1747;48.884;9.160;2022-07-11T01:19:47;18.30;95.70
3466;DHT22;1747;48.884;9.160;2022-07-11T01:22:14;18.30;96.20
3466;DHT22;1747;48.884;9.160;2022-07-11T01:24:43;18.30;97.90
3466;DHT22;1747;48.884;9.160;2022-07-11T01:27:10;18.20;97.60
3466;DHT22;1747;48.884;9.160;2022-07-11T01:29:38;18.20;97.70
3466;DHT22;1747;48.884;9.160;2022-07-11T01:32:05;18.20;97.40
3466;DHT22;1747;48.884;9.160;2022-07-11T01:34:32;18.20;97.10
3466;DHT22;1747;48.884;9.160;2022-07-11T01:36:59;18.20;97.60
3466;DHT22;1747;48.884;9.160;2022-07-11T01:39:26;18.20;97.80
3466;DHT22;1747;48.884;9.160;2022-07-11T01:41:56;18.20;97.60
3466;DHT22;1747;48.884;9.160;2022-07-11T01:44:23;18.10;98.10
3466;DHT22;1747;48.884;9.160;2022-07-11T01:46:50;18.10;98.50
3466;DHT22;1747;48.884;9.160;2022-07-11T01:49:17;18.00;99.90
3466;DHT22;1747;48.884;9.160;2022-07-11T01:51:44;17.90;99.90
3466;DHT22;1747;48.884;9.160;2022-07-11T01:54:11;17.90;99.90
3466;DHT22;1747;48.884;9.160;2022-07-11T01:56:37;17.80;99.90
3466;DHT22;1747;48.884;9.160;2022-07-11T01:59:06;17.80;99.90
3466;DHT22;1747;48.884;9.160;2022-07-11T02:01:33;17.80;99.90
3466;DHT22;1747;48.884;9.160;2022-07-11T02:04:00;17.80;99.90
3466;DHT22;1747;48.884;9.160;2022-07-11T02:06:27;17.80;99.90
3466;DHT22;1747;48.884;9.160;2022-07-11T02:08:54;17.90;99.90
3466;DHT22;1747;48.884;9.160;2022-07-11T02:11:20;17.90;99.90
3466;DHT22;1747;48.884;9.160;2022-07-11T02:13:47;17.90;99.90
3466;DHT22;1747;48.884;9.160;2022-07-11T02:16:15;17.90;99.90
3466;DHT22;1747;48.884;9.160;2022-07-11T02:18:42;17.80;99.90
3466;DHT22;1747;48.884;9.160;2022-07-11T02:21:09;17.80;99.90
3466;DHT22;1747;48.884;9.160;2022-07-11T02:23:38;17.80;99.90
3466;DHT22;1747;48.884;9.160;2022-07-11T02:26:04;17.80;99.90
3466;DHT22;1747;48.884;9.160;2022-07-11T02:28:31;17.80;99.90
3466;DHT22;1747;48.884;9.160;2022-07-11T02:30:59;17.80;99.90
3466;DHT22;1747;48.884;9.160;2022-07-11T02:33:28;17.80;99.90
3466;DHT22;1747;48.884;9.160;2022-07-11T02:35:54;17.80;99.90
3466;DHT22;1747;48.884;9.160;2022-07-11T02:38:21;17.80;99.90
3466;DHT22;1747;48.884;9.160;2022-07-11T02:40:48;17.80;99.90
3466;DHT22;1747;48.884;9.160;2022-07-11T02:43:15;17.80;99.90
3466;DHT22;1747;48.884;9.160;2022-07-11T02:45:42;17.90;99.90
3466;DHT22;1747;48.884;9.160;2022-07-11T02:48:09;17.80;99.90
3466;DHT22;1747;48.884;9.160;2022-07-11T02:50:37;17.80;99.90
3466;DHT22;1747;48.884;9.160;2022-07-11T02:53:04;17.80;99.90
3466;DHT22;1747;48.884;9.160;2022-07-11T02:55:31;17.80;99.90
3466;DHT22;1747;48.884;9.160;2022-07-11T02:57:58;17.80;99.90
3466;DHT22;1747;48.884;9.160;2022-07-11T03:00:25;17.80;99.90
3466;DHT22;1747;48.884;9.160;2022-07-11T03:02:52;17.80;99.90
3466;DHT22;1747;48.884;9.160;2022-07-11T03:05:18;17.80;99.90
3466;DHT22;1747;48.884;9.160;2022-07-11T03:07:47;17.80;99.90
3466;DHT22;1747;48.884;9.160;2022-07-11T03:10:14;17.80;99.90
3466;DHT22;1747;48.884;9.160;2022-07-11T03:12:41;17.80;99.90
3466;DHT22;1747;48.884;9.160;2022-07-11T03:15:09;17.80;99.90
3466;DHT22;1747;48.884;9.160;2022-07-11T03:17:36;17.80;99.90
3466;DHT22;1747;48.884;9.160;2022-07-11T03:20:04;17.80;99.90
3466;DHT22;1747;48.884;9.160;2022-07-11T03:22:31;17.80;99.90
3466;DHT22;1747;48.884;9.160;2022-07-11T03:24:59;17.80;99.90
3466;DHT22;1747;48.884;9.160;2022-07-11T03:27:29;17.80;99.90
3466;DHT22;1747;48.884;9.160;2022-07-11T03:29:55;17.70;99.90
3466;DHT22;1747;48.884;9.160;2022-07-11T03:32:23;17.70;99.90
3466;DHT22;1747;48.884;9.160;2022-07-11T03:34:49;17.70;99.90
3466;DHT22;1747;48.884;9.160;2022-07-11T03:37:30;17.80;99.90
3466;DHT22;1747;48.884;9.160;2022-07-11T03:39:59;17.80;99.90
3466;DHT22;1747;48.884;9.160;2022-07-11T03:42:26;17.70;99.90
3466;DHT22;1747;48.884;9.160;2022-07-11T03:44:53;17.70;99.90
3466;DHT22;1747;48.884;9.160;2022-07-11T03:47:20;17.70;99.90
3466;DHT22;1747;48.884;9.160;2022-07-11T03:49:47;17.70;99.90
3466;DHT22;1747;48.884;9.160;2022-07-11T03:52:14;17.70;99.90
3466;DHT22;1747;48.884;9.160;2022-07-11T03:54:41;17.70;99.90
3466;DHT22;1747;48.884;9.160;2022-07-11T03:57:10;17.80;99.90
3466;DHT22;1747;48.884;9.160;2022-07-11T03:59:36;17.80;99.90
3466;DHT22;1747;48.884;9.160;2022-07-11T04:02:04;17.80;99.90
3466;DHT22;1747;48.884;9.160;2022-07-11T04:04:31;17.80;99.90
3466;DHT22;1747;48.884;9.160;2022-07-11T04:06:58;17.80;99.90
3466;DHT22;1747;48.884;9.160;2022-07-11T04:09:24;17.80;99.90
3466;DHT22;1747;48.884;9.160;2022-07-11T04:11:51;17.80;99.90
3466;DHT22;1747;48.884;9.160;2022-07-11T04:14:20;17.90;99.90
3466;DHT22;1747;48.884;9.160;2022-07-11T04:16:47;17.90;99.90
3466;DHT22;1747;48.884;9.160;2022-07-11T04:19:14;17.90;99.90
3466;DHT22;1747;48.884;9.160;2022-07-11T04:21:40;17.90;99.90
3466;DHT22;1747;48.884;9.160;2022-07-11T04:24:07;17.90;99.90
3466;DHT22;1747;48.884;9.160;2022-07-11T04:26:34;18.00;99.90
3466;DHT22;1747;48.884;9.160;2022-07-11T04:29:01;18.00;99.90
3466;DHT22;1747;48.884;9.160;2022-07-11T04:31:30;17.90;99.90
3466;DHT22;1747;48.884;9.160;2022-07-11T04:33:57;17.90;99.90
3466;DHT22;1747;48.884;9.160;2022-07-11T04:36:24;17.90;99.90
3466;DHT22;1747;48.884;9.160;2022-07-11T04:38:50;18.00;99.90
3466;DHT22;1747;48.884;9.160;2022-07-11T04:41:17;18.00;99.90
3466;DHT22;1747;48.884;9.160;2022-07-11T04:43:44;18.10;99.90
3466;DHT22;1747;48.884;9.160;2022-07-11T04:46:11;18.10;99.90
3466;DHT22;1747;48.884;9.160;2022-07-11T04:48:41;18.20;99.90
3466;DHT22;1747;48.884;9.160;2022-07-11T04:51:08;18.20;99.90
3466;DHT22;1747;48.884;9.160;2022-07-11T04:53:35;18.20;99.90
3466;DHT22;1747;48.884;9.160;2022-07-11T04:56:02;18.20;99.90
3466;DHT22;1747;48.884;9.160;2022-07-11T04:58:29;18.30;99.90
3466;DHT22;1747;48.884;9.160;2022-07-11T05:00:57;18.30;99.90
3466;DHT22;1747;48.884;9.160;2022-07-11T05:03:24;18.40;99.90
3466;DHT22;1747;48.884;9.160;2022-07-11T05:05:53;18.40;99.90
3466;DHT22;1747;48.884;9.160;2022-07-11T05:08:19;18.40;99.90
3466;DHT22;1747;48.884;9.160;2022-07-11T05:10:46;18.50;99.90
3466;DHT22;1747;48.884;9.160;2022-07-11T05:13:13;18.50;99.90
3466;DHT22;1747;48.884;9.160;2022-07-11T05:15:40;18.50;99.90
3466;DHT22;1747;48.884;9.160;2022-07-11T05:18:07;18.60;99.90
3466;DHT22;1747;48.884;9.160;2022-07-11T05:20:34;18.70;99.90
3466;DHT22;1747;48.884;9.160;2022-07-11T05:23:03;18.70;99.90
3466;DHT22;1747;48.884;9.160;2022-07-11T05:25:30;18.80;99.90
3466;DHT22;1747;48.884;9.160;2022-07-11T05:27:56;18.80;99.90
3466;DHT22;1747;48.884;9.160;2022-07-11T05:30:23;18.80;99.90
3466;DHT22;1747;48.884;9.160;2022-07-11T05:32:50;18.90;99.90
3466;DHT22;1747;48.884;9.160;2022-07-11T05:35:17;18.90;99.90
3466;DHT22;1747;48.884;9.160;2022-07-11T05:37:44;18.90;99.90
3466;DHT22;1747;48.884;9.160;2022-07-11T05:40:12;19.00;99.90
3466;DHT22;1747;48.884;9.160;2022-07-11T05:42:39;19.10;99.90
3466;DHT22;1747;48.884;9.160;2022-07-11T05:45:07;19.10;99.90
3466;DHT22;1747;48.884;9.160;2022-07-11T05:47:34;19.10;99.90
3466;DHT22;1747;48.884;9.160;2022-07-11T05:50:01;19.10;99.90
3466;DHT22;1747;48.884;9.160;2022-07-11T05:52:28;19.10;99.90
3466;DHT22;1747;48.884;9.160;2022-07-11T05:54:55;19.20;99.90
3466;DHT22;1747;48.884;9.160;2022-07-11T05:57:23;19.20;99.90
3466;DHT22;1747;48.884;9.160;2022-07-11T05:59:51;19.20;99.90
3466;DHT22;1747;48.884;9.160;2022-07-11T06:02:17;19.30;99.90
3466;DHT22;1747;48.884;9.160;2022-07-11T06:04:45;19.30;99.90
3466;DHT22;1747;48.884;9.160;2022-07-11T06:07:11;19.40;99.90
3466;DHT22;1747;48.884;9.160;2022-07-11T06:09:58;19.40;99.90
3466;DHT22;1747;48.884;9.160;2022-07-11T06:12:25;19.40;99.90
3466;DHT22;1747;48.884;9.160;2022-07-11T06:14:52;19.50;99.90
3466;DHT22;1747;48.884;9.160;2022-07-11T06:17:19;19.50;99.90
3466;DHT22;1747;48.884;9.160;2022-07-11T06:19:46;19.60;99.90
3466;DHT22;1747;48.884;9.160;2022-07-11T06:22:14;19.60;99.90
3466;DHT22;1747;48.884;9.160;2022-07-11T06:24:41;19.60;99.90
3466;DHT22;1747;48.884;9.160;2022-07-11T06:27:08;19.70;99.90
3466;DHT22;1747;48.884;9.160;2022-07-11T06:29:36;19.80;99.90
3466;DHT22;1747;48.884;9.160;2022-07-11T06:32:03;19.90;99.90
3466;DHT22;1747;48.884;9.160;2022-07-11T06:34:30;20.00;99.90
3466;DHT22;1747;48.884;9.160;2022-07-11T06:36:57;20.10;99.90
3466;DHT22;1747;48.884;9.160;2022-07-11T06:39:24;20.20;99.90
3466;DHT22;1747;48.884;9.160;2022-07-11T06:41:51;20.20;99.90
3466;DHT22;1747;48.884;9.160;2022-07-11T06:44:17;20.20;99.90
3466;DHT22;1747;48.884;9.160;2022-07-11T06:46:46;20.20;99.90
3466;DHT22;1747;48.884;9.160;2022-07-11T06:49:14;20.30;99.90
3466;DHT22;1747;48.884;9.160;2022-07-11T06:51:40;20.40;99.90
3466;DHT22;1747;48.884;9.160;2022-07-11T06:54:07;20.50;99.90
3466;DHT22;1747;48.884;9.160;2022-07-11T06:56:34;20.50;99.90
3466;DHT22;1747;48.884;9.160;2022-07-11T06:59:01;20.60;99.90
3466;DHT22;1747;48.884;9.160;2022-07-11T07:01:28;20.60;99.90
3466;DHT22;1747;48.884;9.160;2022-07-11T07:03:56;20.60;99.90
3466;DHT22;1747;48.884;9.160;2022-07-11T07:06:23;20.70;99.90
3466;DHT22;1747;48.884;9.160;2022-07-11T07:08:50;20.90;99.90
3466;DHT22;1747;48.884;9.160;2022-07-11T07:11:16;20.90;99.90
3466;DHT22;1747;48.884;9.160;2022-07-11T07:13:44;20.90;99.90
3466;DHT22;1747;48.884;9.160;2022-07-11T07:16:13;20.90;99.90
3466;DHT22;1747;48.884;9.160;2022-07-11T07:18:40;21.00;99.90
3466;DHT22;1747;48.884;9.160;2022-07-11T07:21:10;21.10;99.90
3466;DHT22;1747;48.884;9.160;2022-07-11T07:23:36;21.20;99.90
3466;DHT22;1747;48.884;9.160;2022-07-11T07:26:03;21.30;99.90
3466;DHT22;1747;48.884;9.160;2022-07-11T07:28:30;21.40;99.70
3466;DHT22;1747;48.884;9.160;2022-07-11T07:30:57;21.50;99.70
3466;DHT22;1747;48.884;9.160;2022-07-11T07:33:24;21.50;99.70
3466;DHT22;1747;48.884;9.160;2022-07-11T07:35:51;21.70;98.60
3466;DHT22;1747;48.884;9.160;2022-07-11T07:38:19;21.70;98.40
3466;DHT22;1747;48.884;9.160;2022-07-11T07:40:46;21.80;98.20
3466;DHT22;1747;48.884;9.160;2022-07-11T07:43:13;21.80;99.40
3466;DHT22;1747;48.884;9.160;2022-07-11T07:45:40;21.80;99.00
3466;DHT22;1747;48.884;9.160;2022-07-11T07:48:07;21.90;99.00
3466;DHT22;1747;48.884;9.160;2022-07-11T07:50:33;21.90;98.90
3466;DHT22;1747;48.884;9.160;2022-07-11T07:53:00;22.00;99.10
3466;DHT22;1747;48.884;9.160;2022-07-11T07:55:29;22.30;98.00
3466;DHT22;1747;48.884;9.160;2022-07-11T07:57:55;22.40;99.00
3466;DHT22;1747;48.884;9.160;2022-07-11T08:00:22;22.50;98.60
3466;DHT22;1747;48.884;9.160;2022-07-11T08:03:09;22.60;97.60
3466;DHT22;1747;48.884;9.160;2022-07-11T08:05:36;22.60;97.80
3466;DHT22;1747;48.884;9.160;2022-07-11T08:08:03;22.80;97.60
3466;DHT22;1747;48.884;9.160;2022-07-11T08:10:31;22.80;97.40
3466;DHT22;1747;48.884;9.160;2022-07-11T08:12:58;22.90;96.50
3466;DHT22;1747;48.884;9.160;2022-07-11T08:15:25;23.00;96.90
3466;DHT22;1747;48.884;9.160;2022-07-11T08:17:52;23.10;96.60
3466;DHT22;1747;48.884;9.160;2022-07-11T08:20:19;23.30;96.00
3466;DHT22;1747;48.884;9.160;2022-07-11T08:22:46;23.20;95.50
3466;DHT22;1747;48.884;9.160;2022-07-11T08:25:13;23.10;96.00
3466;DHT22;1747;48.884;9.160;2022-07-11T08:27:41;23.00;96.20
3466;DHT22;1747;48.884;9.160;2022-07-11T08:30:09;22.90;96.50
3466;DHT22;1747;48.884;9.160;2022-07-11T08:32:38;22.90;96.10
3466;DHT22;1747;48.884;9.160;2022-07-11T08:35:06;23.10;95.20
3466;DHT22;1747;48.884;9.160;2022-07-11T08:37:33;23.10;95.50
3466;DHT22;1747;48.884;9.160;2022-07-11T08:40:00;23.00;95.50
3466;DHT22;1747;48.884;9.160;2022-07-11T08:42:28;22.90;95.60
3466;DHT22;1747;48.884;9.160;2022-07-11T08:44:57;23.00;95.70
3466;DHT22;1747;48.884;9.160;2022-07-11T08:47:24;23.00;95.70
3466;DHT22;1747;48.884;9.160;2022-07-11T08:49:52;22.90;95.40
3466;DHT22;1747;48.884;9.160;2022-07-11T08:52:19;22.90;95.40
3466;DHT22;1747;48.884;9.160;2022-07-11T08:54:47;22.80;95.50
3466;DHT22;1747;48.884;9.160;2022-07-11T08:57:14;22.70;95.40
3466;DHT22;1747;48.884;9.160;2022-07-11T08:59:42;22.70;95.30
3466;DHT22;1747;48.884;9.160;2022-07-11T09:02:12;22.80;95.10
3466;DHT22;1747;48.884;9.160;2022-07-11T09:04:40;23.00;94.80
3466;DHT22;1747;48.884;9.160;2022-07-11T09:07:07;23.10;94.30
3466;DHT22;1747;48.884;9.160;2022-07-11T09:09:34;23.10;94.80
3466;DHT22;1747;48.884;9.160;2022-07-11T09:12:01;23.20;94.10
3466;DHT22;1747;48.884;9.160;2022-07-11T09:14:29;23.40;93.90
3466;DHT22;1747;48.884;9.160;2022-07-11T09:16:57;23.50;93.20
3466;DHT22;1747;48.884;9.160;2022-07-11T09:19:27;23.60;93.10
3466;DHT22;1747;48.884;9.160;2022-07-11T09:21:59;23.50;94.80
3466;DHT22;1747;48.884;9.160;2022-07-11T09:24:57;23.40;94.70
3466;DHT22;1747;48.884;9.160;2022-07-11T09:27:47;23.40;94.10
3466;DHT22;1747;48.884;9.160;2022-07-11T09:30:16;23.50;93.70
3466;DHT22;1747;48.884;9.160;2022-07-11T09:32:53;23.60;93.20
3466;DHT22;1747;48.884;9.160;2022-07-11T09:35:21;23.70;92.90
3466;DHT22;1747;48.884;9.160;2022-07-11T09:37:48;23.70;92.70
3466;DHT22;1747;48.884;9.160;2022-07-11T09:40:16;23.70;93.40
3466;DHT22;1747;48.884;9.160;2022-07-11T09:42:47;23.90;92.40
3466;DHT22;1747;48.884;9.160;2022-07-11T09:45:15;24.20;92.00
3466;DHT22;1747;48.884;9.160;2022-07-11T09:47:44;24.20;91.90
3466;DHT22;1747;48.884;9.160;2022-07-11T09:50:11;24.20;92.20
3466;DHT22;1747;48.884;9.160;2022-07-11T09:52:42;24.30;92.30
3466;DHT22;1747;48.884;9.160;2022-07-11T09:55:10;24.30;92.00
3466;DHT22;1747;48.884;9.160;2022-07-11T09:57:38;24.40;91.60
3466;DHT22;1747;48.884;9.160;2022-07-11T10:00:07;24.50;91.30
3466;DHT22;1747;48.884;9.160;2022-07-11T10:02:34;24.50;91.30
3466;DHT22;1747;48.884;9.160;2022-07-11T10:05:02;24.60;91.20
3466;DHT22;1747;48.884;9.160;2022-07-11T10:07:30;24.70;90.80
3466;DHT22;1747;48.884;9.160;2022-07-11T10:09:59;24.90;91.20
3466;DHT22;1747;48.884;9.160;2022-07-11T10:12:26;25.10;90.80
3466;DHT22;1747;48.884;9.160;2022-07-11T10:14:56;25.20;91.50
3466;DHT22;1747;48.884;9.160;2022-07-11T10:17:28;25.10;91.00
3466;DHT22;1747;48.884;9.160;2022-07-11T10:20:01;25.30;90.60
3466;DHT22;1747;48.884;9.160;2022-07-11T10:22:32;25.30;90.00
3466;DHT22;1747;48.884;9.160;2022-07-11T10:25:09;25.50;89.60
3466;DHT22;1747;48.884;9.160;2022-07-11T10:27:59;25.80;89.40
3466;DHT22;1747;48.884;9.160;2022-07-11T10:30:42;25.90;88.10
3466;DHT22;1747;48.884;9.160;2022-07-11T10:33:10;26.00;87.90
3466;DHT22;1747;48.884;9.160;2022-07-11T10:35:40;26.00;87.30
3466;DHT22;1747;48.884;9.160;2022-07-11T10:38:07;26.10;86.80
3466;DHT22;1747;48.884;9.160;2022-07-11T10:40:44;26.30;86.00
3466;DHT22;1747;48.884;9.160;2022-07-11T10:43:12;26.40;86.30
3466;DHT22;1747;48.884;9.160;2022-07-11T10:45:56;26.40;86.00
3466;DHT22;1747;48.884;9.160;2022-07-11T10:48:23;26.30;84.70
3466;DHT22;1747;48.884;9.160;2022-07-11T10:50:54;26.40;83.90
3466;DHT22;1747;48.884;9.160;2022-07-11T10:53:31;26.60;83.40
3466;DHT22;1747;48.884;9.160;2022-07-11T10:56:05;26.70;83.20
3466;DHT22;1747;48.884;9.160;2022-07-11T10:58:41;26.90;82.70
3466;DHT22;1747;48.884;9.160;2022-07-11T11:01:09;27.10;82.00
3466;DHT22;1747;48.884;9.160;2022-07-11T11:03:39;27.10;82.60
3466;DHT22;1747;48.884;9.160;2022-07-11T11:06:06;27.10;82.00
3466;DHT22;1747;48.884;9.160;2022-07-11T11:08:40;27.10;81.60
3466;DHT22;1747;48.884;9.160;2022-07-11T11:11:36;27.00;81.80
3466;DHT22;1747;48.884;9.160;2022-07-11T11:14:24;27.10;81.30
3466;DHT22;1747;48.884;9.160;2022-07-11T11:16:53;27.00;81.30
3466;DHT22;1747;48.884;9.160;2022-07-11T11:19:54;26.90;81.40
3466;DHT22;1747;48.884;9.160;2022-07-11T11:22:22;26.90;80.60
3466;DHT22;1747;48.884;9.160;2022-07-11T11:24:52;27.00;80.70
3466;DHT22;1747;48.884;9.160;2022-07-11T11:27:21;27.00;80.40
3466;DHT22;1747;48.884;9.160;2022-07-11T11:29:53;27.20;80.70
3466;DHT22;1747;48.884;9.160;2022-07-11T11:32:22;27.20;80.00
3466;DHT22;1747;48.884;9.160;2022-07-11T11:34:48;27.20;80.30
3466;DHT22;1747;48.884;9.160;2022-07-11T11:37:16;27.30;79.70
3466;DHT22;1747;48.884;9.160;2022-07-11T11:39:45;27.40;80.60
3466;DHT22;1747;48.884;9.160;2022-07-11T11:42:14;27.50;79.60
3466;DHT22;1747;48.884;9.160;2022-07-11T11:44:54;27.60;79.70
3466;DHT22;1747;48.884;9.160;2022-07-11T11:47:21;27.80;78.80
3466;DHT22;1747;48.884;9.160;2022-07-11T11:49:49;27.90;77.60
3466;DHT22;1747;48.884;9.160;2022-07-11T11:52:17;28.00;78.80
3466;DHT22;1747;48.884;9.160;2022-07-11T11:54:50;28.10;78.30
3466;DHT22;1747;48.884;9.160;2022-07-11T11:57:20;28.10;77.60
3466;DHT22;1747;48.884;9.160;2022-07-11T11:59:48;28.30;78.10
3466;DHT22;1747;48.884;9.160;2022-07-11T12:02:26;28.60;77.00
3466;DHT22;1747;48.884;9.160;2022-07-11T12:04:53;28.90;76.10
3466;DHT22;1747;48.884;9.160;2022-07-11T12:07:25;29.20;75.20
3466;DHT22;1747;48.884;9.160;2022-07-11T12:09:53;29.40;74.40
3466;DHT22;1747;48.884;9.160;2022-07-11T12:12:24;29.30;73.70
3466;DHT22;1747;48.884;9.160;2022-07-11T12:15:23;29.10;73.70
3466;DHT22;1747;48.884;9.160;2022-07-11T12:17:55;29.20;74.10
3466;DHT22;1747;48.884;9.160;2022-07-11T12:20:42;29.20;76.40
3466;DHT22;1747;48.884;9.160;2022-07-11T12:23:12;29.20;72.80
3466;DHT22;1747;48.884;9.160;2022-07-11T12:25:39;29.20;74.30
3466;DHT22;1747;48.884;9.160;2022-07-11T12:28:06;29.20;73.80
3466;DHT22;1747;48.884;9.160;2022-07-11T12:30:35;29.40;73.10
3466;DHT22;1747;48.884;9.160;2022-07-11T12:33:05;29.50;73.40
3466;DHT22;1747;48.884;9.160;2022-07-11T12:35:33;29.60;72.50
3466;DHT22;1747;48.884;9.160;2022-07-11T12:38:00;29.60;72.20
3466;DHT22;1747;48.884;9.160;2022-07-11T12:40:27;29.40;72.60
3466;DHT22;1747;48.884;9.160;2022-07-11T12:42:54;29.30;72.00
3466;DHT22;1747;48.884;9.160;2022-07-11T12:45:21;29.10;72.60
3466;DHT22;1747;48.884;9.160;2022-07-11T12:47:48;29.10;73.20
3466;DHT22;1747;48.884;9.160;2022-07-11T12:50:20;29.10;73.30
3466;DHT22;1747;48.884;9.160;2022-07-11T12:52:48;29.10;72.90
3466;DHT22;1747;48.884;9.160;2022-07-11T12:55:23;29.00;73.60
3466;DHT22;1747;48.884;9.160;2022-07-11T12:58:14;29.00;75.50
3466;DHT22;1747;48.884;9.160;2022-07-11T13:00:55;29.10;74.30
3466;DHT22;1747;48.884;9.160;2022-07-11T13:03:28;29.00;72.80
3466;DHT22;1747;48.884;9.160;2022-07-11T13:05:57;28.90;73.00
3466;DHT22;1747;48.884;9.160;2022-07-11T13:08:28;28.80;73.80
3466;DHT22;1747;48.884;9.160;2022-07-11T13:11:12;28.80;74.30
3466;DHT22;1747;48.884;9.160;2022-07-11T13:13:39;28.80;73.20
3466;DHT22;1747;48.884;9.160;2022-07-11T13:16:06;28.70;74.40
3466;DHT22;1747;48.884;9.160;2022-07-11T13:18:33;28.80;74.70
3466;DHT22;1747;48.884;9.160;2022-07-11T13:21:02;28.70;74.90
3466;DHT22;1747;48.884;9.160;2022-07-11T13:23:29;28.50;74.30
3466;DHT22;1747;48.884;9.160;2022-07-11T13:25:57;28.50;74.30
3466;DHT22;1747;48.884;9.160;2022-07-11T13:28:23;28.30;74.50
3466;DHT22;1747;48.884;9.160;2022-07-11T13:30:51;28.20;74.80
3466;DHT22;1747;48.884;9.160;2022-07-11T13:33:18;28.10;74.80
3466;DHT22;1747;48.884;9.160;2022-07-11T13:35:45;28.00;75.20
3466;DHT22;1747;48.884;9.160;2022-07-11T13:38:14;27.90;76.30
3466;DHT22;1747;48.884;9.160;2022-07-11T13:40:41;27.80;76.00
3466;DHT22;1747;48.884;9.160;2022-07-11T13:43:08;27.70;74.70
3466;DHT22;1747;48.884;9.160;2022-07-11T13:45:35;27.60;75.50
3466;DHT22;1747;48.884;9.160;2022-07-11T13:48:04;27.50;75.00
3466;DHT22;1747;48.884;9.160;2022-07-11T13:50:31;27.40;75.80
3466;DHT22;1747;48.884;9.160;2022-07-11T13:52:58;27.30;76.60
3466;DHT22;1747;48.884;9.160;2022-07-11T13:55:27;27.40;76.80
3466;DHT22;1747;48.884;9.160;2022-07-11T13:57:55;27.40;75.90
3466;DHT22;1747;48.884;9.160;2022-07-11T14:00:23;27.40;77.50
3466;DHT22;1747;48.884;9.160;2022-07-11T14:02:50;27.50;77.00
3466;DHT22;1747;48.884;9.160;2022-07-11T14:05:18;27.50;76.60
3466;DHT22;1747;48.884;9.160;2022-07-11T14:07:45;27.60;76.90
3466;DHT22;1747;48.884;9.160;2022-07-11T14:10:12;27.70;76.70
3466;DHT22;1747;48.884;9.160;2022-07-11T14:12:41;27.90;77.50
3466;DHT22;1747;48.884;9.160;2022-07-11T14:15:08;28.10;76.30
3466;DHT22;1747;48.884;9.160;2022-07-11T14:17:35;28.00;75.70
3466;DHT22;1747;48.884;9.160;2022-07-11T14:20:03;28.00;75.10
3466;DHT22;1747;48.884;9.160;2022-07-11T14:22:30;28.10;76.70
3466;DHT22;1747;48.884;9.160;2022-07-11T14:24:57;28.10;75.10
3466;DHT22;1747;48.884;9.160;2022-07-11T14:27:24;28.10;75.70
3466;DHT22;1747;48.884;9.160;2022-07-11T14:29:52;28.30;76.00
3466;DHT22;1747;48.884;9.160;2022-07-11T14:32:19;28.50;75.40
3466;DHT22;1747;48.884;9.160;2022-07-11T14:34:47;28.80;74.90
3466;DHT22;1747;48.884;9.160;2022-07-11T14:37:14;29.00;74.00
3466;DHT22;1747;48.884;9.160;2022-07-11T14:39:41;29.30;73.30
3466;DHT22;1747;48.884;9.160;2022-07-11T14:42:08;29.50;72.10
3466;DHT22;1747;48.884;9.160;2022-07-11T14:44:34;29.60;72.60
3466;DHT22;1747;48.884;9.160;2022-07-11T14:47:03;30.10;71.70
3466;DHT22;1747;48.884;9.160;2022-07-11T14:49:30;30.80;69.90
3466;DHT22;1747;48.884;9.160;2022-07-11T14:51:57;31.10;69.90
3466;DHT22;1747;48.884;9.160;2022-07-11T14:54:23;31.20;69.30
3466;DHT22;1747;48.884;9.160;2022-07-11T14:56:50;31.10;68.30
3466;DHT22;1747;48.884;9.160;2022-07-11T14:59:17;30.90;68.40
3466;DHT22;1747;48.884;9.160;2022-07-11T15:01:44;30.70;68.40
3466;DHT22;1747;48.884;9.160;2022-07-11T15:04:12;30.30;68.60
3466;DHT22;1747;48.884;9.160;2022-07-11T15:06:39;30.00;69.30
3466;DHT22;1747;48.884;9.160;2022-07-11T15:09:32;29.80;69.80
3466;DHT22;1747;48.884;9.160;2022-07-11T15:12:17;29.60;70.10
3466;DHT22;1747;48.884;9.160;2022-07-11T15:14:56;29.30;70.40
3466;DHT22;1747;48.884;9.160;2022-07-11T15:17:24;29.20;70.60
3466;DHT22;1747;48.884;9.160;2022-07-11T15:19:52;29.00;71.00
3466;DHT22;1747;48.884;9.160;2022-07-11T15:22:19;28.90;71.30
3466;DHT22;1747;48.884;9.160;2022-07-11T15:24:47;29.30;71.50
3466;DHT22;1747;48.884;9.160;2022-07-11T15:27:15;30.20;70.00
3466;DHT22;1747;48.884;9.160;2022-07-11T15:29:41;30.80;68.50
3466;DHT22;1747;48.884;9.160;2022-07-11T15:32:10;30.90;67.80
3466;DHT22;1747;48.884;9.160;2022-07-11T15:34:37;30.90;67.80
3466;DHT22;1747;48.884;9.160;2022-07-11T15:37:05;31.10;68.40
3466;DHT22;1747;48.884;9.160;2022-07-11T15:39:32;31.50;68.30
3466;DHT22;1747;48.884;9.160;2022-07-11T15:41:59;31.70;67.20
3466;DHT22;1747;48.884;9.160;2022-07-11T15:44:26;31.80;65.90
3466;DHT22;1747;48.884;9.160;2022-07-11T15:46:53;32.00;65.60
3466;DHT22;1747;48.884;9.160;2022-07-11T15:49:19;32.10;65.80
3466;DHT22;1747;48.884;9.160;2022-07-11T15:51:46;31.80;65.80
3466;DHT22;1747;48.884;9.160;2022-07-11T15:54:14;31.40;66.60
3466;DHT22;1747;48.884;9.160;2022-07-11T15:56:41;31.00;66.90
3466;DHT22;1747;48.884;9.160;2022-07-11T15:59:08;30.80;67.30
3466;DHT22;1747;48.884;9.160;2022-07-11T16:01:35;30.60;67.50
3466;DHT22;1747;48.884;9.160;2022-07-11T16:04:06;30.50;68.30
3466;DHT22;1747;48.884;9.160;2022-07-11T16:06:33;30.40;68.10
3466;DHT22;1747;48.884;9.160;2022-07-11T16:09:00;30.30;69.10
3466;DHT22;1747;48.884;9.160;2022-07-11T16:11:29;30.30;69.60